createdAt,value
2017-07-22T14:23:58.701Z,8.90
2017-07-22T14:29:00.440Z,7.13
2017-07-22T14:31:28.054Z,7.40
2017-07-22T14:33:55.654Z,7.03
2017-07-22T14:36:23.309Z,8.20
2017-07-22T14:38:50.909Z,8.23
2017-07-22T14:41:18.508Z,8.23
2017-07-22T14:43:46.170Z,8.03
2017-07-22T14:46:13.761Z,8.30
2017-07-22T14:48:41.350Z,7.60
2017-07-22T14:51:09.011Z,8.47
2017-07-22T14:53:36.638Z,7.87
2017-07-22T14:56:04.334Z,8.53
2017-07-22T14:58:32.048Z,7.03
2017-07-22T15:00:59.642Z,6.90
2017-07-22T15:03:27.240Z,8.77
2017-07-22T15:05:54.899Z,7.97
2017-07-22T15:08:22.531Z,8.93
2017-07-22T15:10:50.152Z,6.87
2017-07-22T15:13:17.811Z,8.10
2017-07-22T15:15:45.422Z,8.53
2017-07-22T15:18:13.019Z,6.83
2017-07-22T15:20:40.663Z,8.13
2017-07-22T15:23:08.250Z,7.83
2017-07-22T15:25:35.879Z,7.97
2017-07-22T15:28:03.542Z,9.00
2017-07-22T15:30:31.365Z,7.73
2017-07-22T15:32:58.949Z,8.43
2017-07-22T15:35:26.727Z,9.93
2017-07-22T15:37:54.331Z,8.30
2017-07-22T15:40:22.007Z,7.87
2017-07-22T15:42:49.729Z,7.70
2017-07-22T15:45:17.340Z,8.23
2017-07-22T15:47:45.036Z,8.40
2017-07-22T15:50:12.695Z,9.30
2017-07-22T15:52:40.301Z,8.50
2017-07-22T15:55:07.913Z,7.90
2017-07-22T15:57:35.573Z,8.83
2017-07-22T16:00:03.192Z,8.57
2017-07-22T16:02:30.795Z,8.33
2017-07-22T16:04:58.464Z,8.33
2017-07-22T16:07:26.130Z,9.87
2017-07-22T16:09:53.721Z,8.70
2017-07-22T16:12:21.449Z,9.23
2017-07-22T16:14:49.053Z,10.07
2017-07-22T16:17:16.746Z,9.23
2017-07-22T16:19:44.415Z,9.67
2017-07-22T16:22:12.029Z,9.87
2017-07-22T16:24:39.643Z,10.57
2017-07-22T16:27:07.314Z,9.87
2017-07-22T16:29:34.899Z,9.83
2017-07-22T16:32:02.498Z,11.07
2017-07-22T16:34:30.172Z,12.27
2017-07-22T16:36:57.775Z,9.53
2017-07-22T16:39:25.395Z,10.27
2017-07-22T16:41:53.057Z,9.37
2017-07-22T16:44:20.676Z,12.40
2017-07-22T16:46:48.339Z,11.07
2017-07-22T16:49:15.993Z,13.77
2017-07-22T16:51:43.610Z,14.97
2017-07-22T16:54:11.228Z,14.30
2017-07-22T16:56:38.909Z,16.77
2017-07-22T16:59:06.536Z,20.90
2017-07-22T17:01:34.161Z,18.70
2017-07-22T17:04:01.837Z,15.83
2017-07-22T17:06:29.448Z,15.10
2017-07-22T17:08:57.109Z,12.33
2017-07-22T17:11:24.768Z,14.60
2017-07-22T17:13:52.394Z,15.57
2017-07-22T17:16:20.001Z,15.73
2017-07-22T17:18:47.667Z,15.10
2017-07-22T17:21:15.254Z,17.37
2017-07-22T17:23:42.858Z,15.17
2017-07-22T17:26:10.522Z,19.07
2017-07-22T17:28:38.136Z,17.90
2017-07-22T17:31:05.774Z,14.37
2017-07-22T17:33:33.435Z,18.50
2017-07-22T17:36:01.041Z,19.43
2017-07-22T17:38:28.648Z,20.43
2017-07-22T17:40:56.302Z,18.30
2017-07-22T17:43:23.913Z,17.27
2017-07-22T17:45:51.504Z,17.83
2017-07-22T17:48:19.168Z,16.70
2017-07-22T17:50:46.779Z,17.67
2017-07-22T17:53:14.393Z,16.73
2017-07-22T17:55:42.035Z,17.03
2017-07-22T17:58:09.663Z,17.83
2017-07-22T18:00:37.275Z,17.57
2017-07-22T18:03:04.952Z,18.33
2017-07-22T18:05:32.643Z,19.27
2017-07-22T18:08:00.281Z,20.77
2017-07-22T18:10:27.968Z,27.40
2017-07-22T18:12:55.589Z,29.80
2017-07-22T18:15:23.190Z,42.10
2017-07-22T18:17:50.861Z,42.43
2017-07-22T18:20:18.479Z,24.67
2017-07-22T18:22:46.072Z,28.33
2017-07-22T18:25:13.712Z,22.63
2017-07-22T18:27:41.310Z,23.33
2017-07-22T18:30:08.905Z,20.87
2017-07-22T18:32:36.551Z,21.30
2017-07-22T18:35:04.192Z,22.90
2017-07-22T18:37:31.786Z,21.20
2017-07-22T18:39:59.443Z,21.30
2017-07-22T18:42:27.069Z,21.80
2017-07-22T18:44:54.811Z,18.80
2017-07-22T18:47:23.533Z,23.80
2017-07-22T18:49:51.142Z,19.43
2017-07-22T18:52:18.765Z,20.20
2017-07-22T18:54:46.439Z,20.57
2017-07-22T18:57:14.046Z,19.53
2017-07-22T18:59:41.635Z,19.77
2017-07-22T19:02:09.287Z,19.63
2017-07-22T19:04:36.915Z,18.40
2017-07-22T19:07:04.528Z,19.33
2017-07-22T19:09:32.191Z,19.87
2017-07-22T19:12:00.003Z,18.73
2017-07-22T19:14:27.648Z,20.00
2017-07-22T19:16:55.349Z,21.80
2017-07-22T19:19:22.970Z,31.50
2017-07-22T19:21:50.628Z,31.57
2017-07-22T19:24:18.439Z,29.20
2017-07-22T19:26:46.068Z,22.63
2017-07-22T19:29:13.670Z,22.60
2017-07-22T19:31:41.326Z,22.10
2017-07-22T19:34:08.925Z,20.87
2017-07-22T19:36:36.550Z,22.87
2017-07-22T19:39:04.570Z,21.37
2017-07-22T19:41:32.292Z,19.43
2017-07-22T19:44:00.046Z,19.87
2017-07-22T19:46:27.834Z,19.53
2017-07-22T19:48:55.492Z,19.80
2017-07-22T19:51:23.118Z,19.70
2017-07-22T19:53:50.793Z,20.87
2017-07-22T19:56:18.438Z,21.50
2017-07-22T19:58:46.060Z,20.43
2017-07-22T20:01:13.785Z,21.97
2017-07-22T20:03:41.485Z,20.83
2017-07-22T20:06:09.108Z,21.20
2017-07-22T20:08:36.772Z,19.83
2017-07-22T20:11:04.374Z,21.73
2017-07-22T20:13:32.064Z,20.70
2017-07-22T20:15:59.728Z,20.40
2017-07-22T20:18:27.352Z,22.20
2017-07-22T20:20:54.961Z,20.07
2017-07-22T20:23:22.647Z,20.70
2017-07-22T20:25:50.240Z,20.80
2017-07-22T20:28:17.845Z,24.97
2017-07-22T20:30:45.499Z,23.47
2017-07-22T20:33:13.099Z,22.70
2017-07-22T20:35:40.701Z,23.77
2017-07-22T20:38:08.384Z,22.77
2017-07-22T20:40:35.981Z,24.37
2017-07-22T20:43:03.590Z,23.30
2017-07-22T20:45:31.252Z,23.43
2017-07-22T20:47:58.850Z,22.30
2017-07-22T20:50:26.442Z,22.70
2017-07-22T20:52:54.173Z,23.17
2017-07-22T20:55:21.784Z,22.80
2017-07-22T20:57:49.404Z,21.33
2017-07-22T21:00:17.076Z,21.47
2017-07-22T21:02:44.698Z,21.57
2017-07-22T21:05:12.318Z,24.00
2017-07-22T21:07:40.001Z,23.00
2017-07-22T21:10:07.598Z,22.23
2017-07-22T21:12:35.200Z,22.40
2017-07-22T21:15:02.881Z,21.90
2017-07-22T21:17:30.483Z,22.13
2017-07-22T21:19:58.201Z,23.70
2017-07-22T21:22:25.840Z,24.50
2017-07-22T21:24:53.431Z,22.63
2017-07-22T21:27:21.016Z,26.30
2017-07-22T21:29:48.657Z,24.60
2017-07-22T21:32:16.259Z,22.70
2017-07-22T21:34:43.860Z,22.27
2017-07-22T21:37:11.519Z,26.40
2017-07-22T21:39:39.126Z,24.27
2017-07-22T21:42:06.725Z,24.87
2017-07-22T21:44:34.376Z,24.40
2017-07-22T21:47:02.044Z,24.03
2017-07-22T21:49:29.654Z,24.03
2017-07-22T21:51:57.296Z,24.70
2017-07-22T21:54:24.907Z,24.67
2017-07-22T21:56:52.516Z,26.30
2017-07-22T21:59:20.150Z,27.07
2017-07-22T22:01:47.830Z,25.27
2017-07-22T22:04:15.463Z,25.70
2017-07-22T22:06:43.231Z,25.77
2017-07-22T22:09:10.879Z,26.47
2017-07-22T22:11:38.595Z,26.03
2017-07-22T22:14:06.247Z,27.70
2017-07-22T22:16:33.908Z,28.63
2017-07-22T22:19:01.514Z,25.03
2017-07-22T22:21:29.181Z,25.00
2017-07-22T22:23:56.810Z,27.43
2017-07-22T22:26:24.426Z,27.20
2017-07-22T22:28:52.092Z,26.70
2017-07-22T22:31:19.704Z,26.00
2017-07-22T22:33:47.303Z,26.77
2017-07-22T22:36:14.992Z,26.10
2017-07-22T22:38:42.590Z,25.83
2017-07-22T22:41:10.174Z,26.33
2017-07-22T22:43:37.826Z,26.50
2017-07-22T22:46:05.426Z,26.80
2017-07-22T22:48:33.037Z,27.93
2017-07-22T22:51:00.688Z,28.03
2017-07-22T22:53:28.282Z,27.27
2017-07-22T22:55:55.877Z,25.53
2017-07-22T22:58:23.518Z,22.43
2017-07-22T23:00:51.115Z,23.70
2017-07-22T23:03:18.694Z,24.20
2017-07-22T23:05:46.370Z,24.77
2017-07-22T23:08:13.987Z,22.27
2017-07-22T23:10:41.631Z,25.10
2017-07-22T23:13:09.297Z,25.10
2017-07-22T23:15:36.906Z,24.73
2017-07-22T23:18:04.563Z,25.00
2017-07-22T23:20:32.261Z,23.97
2017-07-22T23:22:59.865Z,25.63
2017-07-22T23:25:27.463Z,24.63
2017-07-22T23:27:55.133Z,24.80
2017-07-22T23:30:22.746Z,25.90
2017-07-22T23:32:50.357Z,26.60
2017-07-22T23:35:18.010Z,23.33
2017-07-22T23:37:45.602Z,24.50
2017-07-22T23:40:13.228Z,27.10
2017-07-22T23:42:40.894Z,26.33
2017-07-22T23:45:08.498Z,28.40
2017-07-22T23:47:36.108Z,27.00
2017-07-22T23:50:03.785Z,27.80
2017-07-22T23:52:31.398Z,27.77
2017-07-22T23:54:58.997Z,26.73
2017-07-22T23:57:26.661Z,27.80
2017-07-22T23:59:54.278Z,27.00
